Weather observations for the past three days for
Rochester - St. Mary's Hospital Heliport
| Date | Time (cdt) | Wind (kph) | Vis. (km) | Weather | Sky Cond. | Temperature (ºC) | Relative Humidity | Wind Chill (°C) | Heat Index (°C) | Pressure | Precipitation (cm) | ||||||
|---|---|---|---|---|---|---|---|---|---|---|---|---|---|---|---|---|---|
| Air | Dwpt | 6 hour | altimeter (cm) | sea level (mb) | 1 hr | 3 hr | 6 hr | ||||||||||
| Max. | Min. | ||||||||||||||||
| 04 | 22:46 | NW 22 | 16.09 | Fair | CLR | 8 | -6 | 37% | 5 | 75.49 | 0.0 | ||||||
| 04 | 22:27 | NW 30 | 16.09 | Fair | CLR | 8 | -5 | 40% | 4 | 75.49 | 0.0 | ||||||
| 04 | 22:09 | W 33 | 16.09 | Fair and Breezy | CLR | 9 | -5 | 37% | 5 | 0 | 0.0 | ||||||
| 04 | 21:48 | W 26 | 16.09 | Fair | CLR | 9 | -4 | 40% | 6 | 75.46 | 0.0 | ||||||
| 04 | 21:30 | NW 26 | 16.09 | Fair | CLR | 9 | -4 | 40% | 6 | 75.44 | 0.0 | ||||||
| 04 | 21:01 | NW 28 | 16.09 | Fair | CLR | 10 | -4 | 37% | 7 | 75.36 | 0.0 | ||||||
| 04 | 20:41 | NW 30 | 16.09 | Fair | CLR | 10 | -4 | 37% | 7 | 75.34 | 0.0 | ||||||
| 04 | 20:23 | NW 31 | 16.09 | Fair | CLR | 11 | -4 | 35% | 75.31 | 0.0 | |||||||
| 04 | 20:03 | NW 24 | 16.09 | Fair | CLR | 11 | -3 | 38% | 75.29 | 0.0 | |||||||
| 04 | 19:46 | NW 41 | 16.09 | Fair and Breezy | CLR | 12 | -3 | 35% | 75.23 | 0.0 | |||||||
| 04 | 19:10 | W 35 | 16.09 | Fair and Breezy | CLR | 13 | -3 | 33% | 75.21 | 0.0 | |||||||
| 04 | 18:48 | W 28 | 16.09 | Fair | CLR | 13 | -3 | 33% | 75.21 | 0.0 | |||||||
| 04 | 18:28 | W 26 | 16.09 | Partly Cloudy | SCT070 | 14 | -3 | 31% | 75.18 | 0.0 | |||||||
| 04 | 18:09 | W 22 | 16.09 | Fair | CLR | 15 | -3 | 29% | 75.16 | 0.0 | |||||||
| 04 | 17:50 | W 20 | 16.09 | Fair | CLR | 15 | -3 | 29% | 75.16 | 0.0 | |||||||
| 04 | 17:34 | W 31 | 16.09 | Fair | CLR | 15 | -3 | 29% | 75.11 | 0.0 | |||||||
| 04 | 17:04 | NW 31 | 16.09 | Fair | CLR | 16 | -4 | 25% | 75.08 | 0.0 | |||||||
| 04 | 16:45 | W 28 | 16.09 | Fair | CLR | 16 | -3 | 27% | 75.08 | 0.0 | |||||||
| 04 | 16:27 | W 43 | 16.09 | Fair and Windy | CLR | 16 | -3 | 27% | 75.06 | 0.0 | |||||||
| 04 | 16:07 | NW 20 | 16.09 | Fair | CLR | 17 | -4 | 24% | 75.08 | 0.0 | |||||||
| 04 | 15:50 | W 35 | 16.09 | Fair and Breezy | CLR | 17 | -4 | 24% | 75.03 | 0.0 | |||||||
| 04 | 15:08 | W 30 | 16.09 | Fair | CLR | 17 | -5 | 22% | 75.03 | 0.0 | |||||||
| 04 | 14:06 | W 39 | 16.09 | Fair and Breezy | CLR | 17 | -3 | 25% | 74.98 | 0.0 | |||||||
| 04 | 13:48 | W 33 | 16.09 | Fair and Breezy | CLR | 17 | -3 | 25% | 74.98 | 0.0 | |||||||
| 04 | 13:30 | W 35 | 16.09 | Fair and Breezy | CLR | 18 | -3 | 24% | 74.98 | 0.0 | |||||||
| 04 | 13:04 | W 22 | 16.09 | Fair | CLR | 18 | -3 | 24% | 74.96 | 0.0 | |||||||
| 04 | 12:43 | W 19 | 16.09 | Fair | CLR | 19 | -1 | 26% | 74.96 | 0.0 | |||||||
| 04 | 12:23 | NW 24 | 16.09 | Fair | CLR | 18 | -2 | 26% | 74.96 | 0.0 | |||||||
| 04 | 12:03 | NW 22 | 16.09 | Fair | CLR | 18 | -2 | 26% | 74.96 | 0.0 | |||||||
| 04 | 11:43 | W 24 | 16.09 | Fair | CLR | 18 | 0 | 30% | 74.93 | 0.0 | |||||||
| 04 | 11:25 | W 33 | 16.09 | Fair and Breezy | CLR | 18 | -1 | 28% | 74.93 | 0.0 | |||||||
| 04 | 11:07 | NW 17 | 16.09 | Fair | CLR | 17 | 1 | 34% | 74.93 | 0.0 | |||||||
| 04 | 10:46 | W 22 | 16.09 | Fair | CLR | 18 | 2 | 34% | 74.9 | 0.0 | |||||||
| 04 | 10:27 | W 17 | 16.09 | Fair | CLR | 17 | 2 | 37% | 74.93 | 0.0 | |||||||
| 04 | 10:10 | W 22 | 16.09 | Fair | CLR | 17 | 2 | 37% | 74.9 | 0.0 | |||||||
| 04 | 09:51 | W 22 | 16.09 | Fair | CLR | 17 | 2 | 37% | 74.9 | 0.0 | |||||||
| 04 | 09:29 | W 37 | 16.09 | Partly Cloudy and Breezy | SCT100 | 17 | 2 | 37% | 74.88 | 0.0 | |||||||
| 04 | 09:10 | W 41 | 16.09 | Partly Cloudy and Breezy | SCT100 | 17 | 1 | 34% | 74.88 | 0.0 | |||||||
| 04 | 08:53 | W 19 | 16.09 | Fair | CLR | 17 | 2 | 37% | 0 | 0.0 | |||||||
| 04 | 08:01 | SW 28 | 16.09 | Mostly Cloudy | BKN100 | 15 | 0 | 36% | 74.85 | 0.0 | |||||||
| 04 | 07:43 | SW 26 | 16.09 | Partly Cloudy | SCT110 | 15 | 0 | 36% | 74.85 | 0.0 | |||||||
| 04 | 07:12 | SW 24 | 16.09 | Fair | CLR | 14 | 0 | 39% | 74.88 | 0.0 | |||||||
| 04 | 06:51 | SW 26 | 16.09 | Fair | CLR | 14 | 0 | 39% | 74.88 | 0.0 | |||||||
| 04 | 06:26 | SW 30 | 16.09 | Fair | CLR | 13 | -1 | 38% | 74.88 | 0.0 | |||||||
| 04 | 06:08 | SW 28 | 16.09 | Fair | CLR | 13 | -1 | 38% | 74.9 | 0.0 | |||||||
| 04 | 05:49 | SW 28 | 16.09 | Fair | CLR | 13 | -1 | 38% | 74.93 | 0.0 | |||||||
| 04 | 05:22 | SW 24 | 16.09 | Fair | CLR | 13 | -1 | 38% | 74.93 | 0.0 | |||||||
| 04 | 05:03 | SW 22 | 16.09 | Fair | CLR | 14 | -1 | 36% | 74.96 | 0.0 | |||||||
| 04 | 04:43 | SW 22 | 16.09 | Fair | CLR | 14 | -1 | 36% | 74.98 | 0.0 | |||||||
| 04 | 04:25 | SW 22 | 16.09 | Fair | CLR | 13 | -2 | 36% | 75.01 | 0.0 | |||||||
| 04 | 04:06 | SW 22 | 16.09 | Fair | CLR | 13 | -2 | 36% | 75.01 | 0.0 | |||||||
| 04 | 03:49 | SW 19 | 16.09 | Fair | CLR | 13 | -2 | 36% | 75.03 | 0.0 | |||||||
| 04 | 03:29 | S 20 | 16.09 | Fair | CLR | 13 | -2 | 36% | 75.06 | 0.0 | |||||||
| 04 | 02:49 | SW 19 | 16.09 | Fair | CLR | 13 | -2 | 36% | 0 | 0.0 | |||||||
| 04 | 02:33 | SW 19 | 16.09 | Fair | CLR | 14 | -2 | 33% | 75.13 | 0.0 | |||||||
| 04 | 02:03 | S 19 | 16.09 | Fair | CLR | 13 | -2 | 36% | 75.16 | 0.0 | |||||||
| 04 | 01:43 | S 17 | 16.09 | Fair | CLR | 14 | -2 | 33% | 75.18 | 0.0 | |||||||
| 04 | 01:26 | S 19 | 16.09 | Fair | CLR | 14 | -2 | 33% | 75.21 | 0.0 | |||||||
| 04 | 01:08 | S 19 | 16.09 | Fair | CLR | 14 | -2 | 33% | 75.23 | 0.0 | |||||||
| 04 | 00:48 | SW 19 | 16.09 | Fair | CLR | 14 | -1 | 36% | 75.26 | 0.0 | |||||||
| 04 | 00:21 | Calm | 16.09 | Fair | CLR | 13 | -1 | 38% | 75.29 | 0.0 | |||||||
| 04 | 00:01 | SW 9 | 16.09 | Fair | CLR | 14 | -1 | 36% | 75.31 | 0.0 | |||||||
| 03 | 23:41 | SW 7 | 16.09 | Fair | CLR | 15 | -1 | 34% | 75.31 | 0.0 | |||||||
| 03 | 23:13 | SW 9 | 16.09 | Fair | CLR | 15 | -1 | 34% | 75.34 | 0.0 | |||||||
| 03 | 22:41 | SW 11 | 16.09 | Fair | CLR | 16 | -1 | 31% | 75.39 | 0.0 | |||||||
| 03 | 22:21 | SW 15 | 16.09 | Fair | CLR | 16 | -2 | 29% | 75.39 | 0.0 | |||||||
| 03 | 22:03 | SW 15 | 16.09 | Fair | CLR | 17 | -2 | 27% | 75.44 | 0.0 | |||||||
| 03 | 21:44 | SW 9 | 16.09 | Fair | CLR | 17 | -2 | 27% | 75.44 | 0.0 | |||||||
| 03 | 21:25 | W 11 | 16.09 | Fair | CLR | 17 | -3 | 25% | 75.44 | 0.0 | |||||||
| 03 | 21:08 | W 7 | 16.09 | Fair | CLR | 18 | -2 | 26% | 75.41 | 0.0 | |||||||
| 03 | 20:41 | W 7 | 16.09 | Fair | CLR | 18 | -2 | 26% | 75.39 | 0.0 | |||||||
| 03 | 20:24 | W 6 | 16.09 | Fair | CLR | 19 | -2 | 24% | 0 | 0.0 | |||||||
| 03 | 20:04 | W 6 | 16.09 | Fair | CLR | 0 | 0 | 0% | 75.39 | 0.0 | |||||||
| 03 | 19:43 | W 13 | 16.09 | Fair | CLR | 20 | -2 | 23% | 75.39 | 0.0 | |||||||
| 03 | 19:14 | NW 15 | 16.09 | Fair | CLR | 20 | -3 | 21% | 75.41 | 0.0 | |||||||
| 03 | 18:46 | NW 13 | 16.09 | Fair | CLR | 20 | -2 | 23% | 0 | 0.0 | |||||||
| 03 | 18:25 | W 13 | 16.09 | Fair | CLR | 21 | -3 | 20% | 75.41 | 0.0 | |||||||
| 03 | 18:05 | NW 22 | 16.09 | Fair | CLR | 21 | -3 | 20% | 75.41 | 0.0 | |||||||
| 03 | 17:46 | NW 20 | 16.09 | Fair | CLR | 20 | -3 | 21% | 75.41 | 0.0 | |||||||
| 03 | 17:30 | W 17 | 16.09 | Fair | CLR | 21 | -2 | 21% | 0 | 0.0 | |||||||
| 03 | 17:13 | W 26 | 16.09 | Fair | CLR | 21 | -2 | 21% | 75.39 | 0.0 | |||||||
| 03 | 16:43 | NW 13 | 16.09 | Fair | CLR | 21 | -2 | 21% | 75.41 | 0.0 | |||||||
| 03 | 16:23 | NW 24 | 16.09 | Fair | CLR | 21 | -2 | 21% | 75.41 | 0.0 | |||||||
| 03 | 16:06 | NW 20 | 16.09 | Fair | CLR | 20 | -2 | 23% | 75.41 | 0.0 | |||||||
| 03 | 15:44 | NW 20 | 16.09 | Fair | CLR | 20 | 0 | 26% | 75.44 | 0.0 | |||||||
| 03 | 15:26 | W 13 | 16.09 | Fair | CLR | 21 | 0 | 25% | 75.44 | 0.0 | |||||||
| 03 | 14:53 | W 17 | 16.09 | Fair | CLR | 20 | -1 | 24% | 0 | 0.0 | |||||||
| 03 | 14:21 | NW 20 | 16.09 | Fair | CLR | 20 | -1 | 24% | 0 | 0.0 | |||||||
| 03 | 14:05 | NW 22 | 16.09 | Fair | CLR | 20 | 0 | 26% | 75.46 | 0.0 | |||||||
| 03 | 13:45 | NW 19 | 16.09 | Fair | CLR | 20 | -1 | 24% | 75.46 | 0.0 | |||||||
| 03 | 13:25 | NW 20 | 16.09 | Fair | CLR | 19 | 1 | 30% | 75.46 | 0.0 | |||||||
| 03 | 13:07 | NW 26 | 16.09 | Fair | CLR | 19 | 1 | 30% | 75.49 | 0.0 | |||||||
| 03 | 12:47 | W 28 | 16.09 | Fair | CLR | 18 | 1 | 32% | 75.49 | 0.0 | |||||||
| 03 | 12:31 | W 24 | 16.09 | Fair | CLR | 18 | 1 | 32% | 75.49 | 0.0 | |||||||
| 03 | 12:02 | NW 28 | 16.09 | Fair | CLR | 18 | 1 | 32% | 75.49 | 0.0 | |||||||
| 03 | 11:43 | NW 24 | 16.09 | Fair | CLR | 18 | 1 | 32% | 75.49 | 0.0 | |||||||
| 03 | 11:26 | NW 19 | 16.09 | Fair | CLR | 17 | 1 | 34% | 75.49 | 0.0 | |||||||
| 03 | 11:07 | NW 15 | 16.09 | Fair | CLR | 17 | 1 | 34% | 75.49 | 0.0 | |||||||
| 03 | 10:49 | NW 13 | 16.09 | Fair | CLR | 17 | 1 | 34% | 75.49 | 0.0 | |||||||
| 03 | 10:26 | NW 11 | 16.09 | Fair | CLR | 16 | 1 | 36% | 75.49 | 0.0 | |||||||
| 03 | 10:09 | W 11 | 16.09 | Fair | CLR | 16 | 0 | 34% | 75.46 | 0.0 | |||||||
| 03 | 09:51 | W 17 | 16.09 | Fair | CLR | 15 | 0 | 36% | 75.46 | 0.0 | |||||||
| 03 | 09:02 | W 11 | 16.09 | Fair | CLR | 14 | 0 | 39% | 75.49 | 0.0 | |||||||
| 03 | 08:42 | SW 15 | 16.09 | Fair | CLR | 13 | -1 | 38% | 75.51 | 0.0 | |||||||
| 03 | 08:25 | SW 19 | 16.09 | Fair | CLR | 13 | -1 | 38% | 75.49 | 0.0 | |||||||
| 03 | 08:05 | SW 24 | 16.09 | Fair | CLR | 12 | -1 | 41% | 0 | 0.0 | |||||||
| 03 | 07:46 | S 24 | 16.09 | Fair | CLR | 12 | -1 | 41% | 0 | 0.0 | |||||||
| 03 | 07:29 | S 19 | 16.09 | Fair | CLR | 12 | -1 | 41% | 0 | 0.0 | |||||||
| 03 | 07:10 | S 13 | 16.09 | Fair | CLR | 11 | -1 | 44% | 0 | 0.0 | |||||||
| 03 | 06:42 | S 13 | 16.09 | NULL | NULL | 11 | -1 | 44% | 0 | 0.0 | |||||||
| 03 | 06:23 | S 17 | 16.09 | Partly Cloudy | SCT095 | 11 | -1 | 44% | 0 | 0.0 | |||||||
| 03 | 06:03 | S 22 | 16.09 | Partly Cloudy | SCT095 | 11 | -1 | 44% | 75.46 | 0.0 | |||||||
| 03 | 05:45 | S 24 | 16.09 | Partly Cloudy | SCT060 SCT095 SCT110 | 12 | 0 | 44% | 75.46 | 0.0 | |||||||
| 03 | 05:12 | S 24 | 16.09 | Mostly Cloudy | SCT018 BKN095 BKN010 | 12 | 1 | 47% | 75.49 | 0.0 | |||||||
| 03 | 04:42 | S 19 | 16.09 | Mostly Cloudy | BKN110 | 12 | -1 | 41% | 75.51 | 0.0 | |||||||
| 03 | 04:21 | S 17 | 16.09 | Partly Cloudy | SCT120 | 12 | -1 | 41% | 75.54 | 0.0 | |||||||
| 03 | 04:01 | S 26 | 16.09 | Partly Cloudy | SCT095 SCT110 | 12 | -2 | 38% | 0 | 0.0 | |||||||
| 03 | 03:42 | S 26 | 16.09 | Overcast | SCT070 OVC095 | 13 | -2 | 36% | 75.62 | 0.0 | |||||||
| 03 | 03:21 | S 24 | 16.09 | Overcast | BKN095 OVC110 | 14 | -2 | 33% | 75.67 | 0.0 | |||||||
| 03 | 03:04 | SW 19 | 16.09 | Overcast | SCT050 SCT060 OVC095 | 13 | -1 | 38% | 75.69 | 0.0 | |||||||
| 03 | 02:46 | SW 13 | 16.09 | Overcast | SCT050 SCT075 OVC095 | 13 | 0 | 41% | 75.69 | 0.0 | |||||||
| 03 | 02:26 | SW 15 | 16.09 | Partly Cloudy | SCT120 | 13 | -2 | 36% | 0 | 0.0 | |||||||
| 03 | 02:08 | SW 22 | 16.09 | Partly Cloudy | SCT110 | 13 | -2 | 36% | 75.69 | 0.0 | |||||||
| 03 | 01:41 | SW 17 | 16.09 | Partly Cloudy | SCT120 | 13 | -2 | 36% | 0 | 0.0 | |||||||
| 03 | 01:21 | S 13 | 16.09 | Partly Cloudy | SCT120 | 13 | -2 | 36% | 75.74 | 0.0 | |||||||
| 03 | 01:02 | SW 20 | 16.09 | Partly Cloudy | SCT120 | 13 | -2 | 36% | 75.74 | 0.0 | |||||||
| 03 | 00:41 | SW 19 | 16.09 | Overcast | SCT010 OVC010 | 13 | -2 | 36% | 75.77 | 0.0 | |||||||
| 03 | 00:21 | S 15 | 16.09 | Overcast | BKN100 OVC120 | 13 | -2 | 36% | 75.79 | 0.0 | |||||||
| 03 | 00:03 | S 13 | 16.09 | Overcast | OVC100 | 13 | -2 | 36% | 75.82 | 0.0 | |||||||
| 02 | 23:43 | S 15 | 16.09 | Overcast | OVC090 | 14 | -2 | 33% | 75.82 | 0.0 | |||||||
| 02 | 23:28 | S 15 | 16.09 | Overcast | OVC090 | 14 | -2 | 33% | 75.84 | 0.0 | |||||||
| 02 | 23:06 | SW 13 | 16.09 | Overcast | OVC090 | 14 | -2 | 33% | 75.84 | 0.0 | |||||||
| 02 | 22:48 | S 13 | 16.09 | Overcast | OVC090 | 14 | -2 | 33% | 75.87 | 0.0 | |||||||
| 02 | 22:23 | SW 13 | 16.09 | Overcast | OVC090 | 15 | -2 | 31% | 75.9 | 0.0 | |||||||
| 02 | 22:04 | SW 11 | 16.09 | Overcast | OVC090 | 15 | -2 | 31% | 75.92 | 0.0 | |||||||
| 02 | 21:44 | SW 13 | 16.09 | Overcast | OVC090 | 15 | -2 | 31% | 75.92 | 0.0 | |||||||
| 02 | 21:09 | SW 13 | 16.09 | Overcast | OVC100 | 16 | -2 | 29% | 75.92 | 0.0 | |||||||
| 02 | 20:50 | SW 11 | 16.09 | Mostly Cloudy | BKN110 | 16 | -2 | 29% | 75.92 | 0.0 | |||||||
| 02 | 20:21 | SW 7 | 16.09 | Mostly Cloudy | SCT080 BKN120 | 16 | -3 | 27% | 75.92 | 0.0 | |||||||
| 02 | 20:01 | SW 9 | 16.09 | Overcast | OVC090 | 16 | -3 | 27% | 75.95 | 0.0 | |||||||
| 02 | 19:45 | SW 7 | 16.09 | Overcast | BKN090 OVC120 | 16 | -3 | 27% | 75.95 | 0.0 | |||||||
| 02 | 19:14 | W 7 | 16.09 | Partly Cloudy | SCT110 | 17 | -3 | 25% | 0 | 0.0 | |||||||
| 02 | 18:46 | W 15 | 16.09 | Partly Cloudy | SCT100 | 17 | -3 | 25% | 75.97 | 0.0 | |||||||
| 02 | 18:29 | SW 9 | 16.09 | Partly Cloudy | SCT110 | 17 | -3 | 25% | 75.97 | 0.0 | |||||||
| 02 | 18:07 | W 15 | 16.09 | Partly Cloudy | SCT110 | 17 | -3 | 25% | 76 | 0.0 | |||||||
| 02 | 17:48 | W 13 | 16.09 | Partly Cloudy | SCT110 | 17 | -3 | 25% | 76 | 0.0 | |||||||
| 02 | 17:29 | SW 31 | 16.09 | Fair | CLR | 18 | -3 | 24% | 76 | 0.0 | |||||||
| 02 | 17:09 | W 11 | 16.09 | Fair | CLR | 17 | -4 | 24% | 76.02 | 0.0 | |||||||
| 02 | 16:52 | W 11 | 16.09 | Fair | CLR | 17 | -4 | 24% | 76.05 | 0.0 | |||||||
| 02 | 16:21 | W 19 | 16.09 | Partly Cloudy | SCT015 | 17 | -4 | 24% | 76.07 | 0.0 | |||||||
| 02 | 15:41 | W 13 | 16.09 | Fair | CLR | 16 | -5 | 23% | 76.12 | 0.0 | |||||||
| 02 | 15:23 | SW 19 | 16.09 | NULL | NULL | 16 | -5 | 23% | 76.15 | 0.0 | |||||||
| 02 | 15:06 | W 11 | 16.09 | Partly Cloudy | SCT090 | 16 | -5 | 23% | 76.15 | 0.0 | |||||||
| 02 | 14:31 | W 20 | 16.09 | Partly Cloudy | SCT080 | 15 | -6 | 23% | 76.2 | 0.0 | |||||||
| 02 | 13:46 | W 17 | 16.09 | Partly Cloudy | SCT080 | 15 | -6 | 23% | 76.25 | 0.0 | |||||||
| 02 | 13:27 | W 13 | 16.09 | Fair | CLR | 14 | -6 | 25% | 76.3 | 0.0 | |||||||
| 02 | 12:49 | NW 17 | 16.09 | Fair | CLR | 13 | -6 | 26% | 76.33 | 0.0 | |||||||
| 02 | 12:33 | W 19 | 16.09 | Fair | CLR | 13 | -5 | 28% | 76.35 | 0.0 | |||||||
| 02 | 12:11 | W 15 | 16.09 | Fair | CLR | 13 | -5 | 28% | 76.38 | 0.0 | |||||||
| 02 | 11:43 | W 11 | 16.09 | Fair | CLR | 12 | -5 | 30% | 76.38 | 0.0 | |||||||
| 02 | 11:09 | W 11 | 16.09 | Partly Cloudy | SCT065 | 12 | -6 | 28% | 76.4 | 0.0 | |||||||
| 02 | 10:48 | W 22 | 16.09 | Partly Cloudy | SCT065 | 12 | -6 | 28% | 76.43 | 0.0 | |||||||
| 02 | 10:32 | W 19 | 16.09 | Fair | CLR | 11 | -6 | 30% | 76.43 | 0.0 | |||||||
| 02 | 10:01 | NW 11 | 16.09 | Fair | CLR | 11 | -6 | 30% | 76.43 | 0.0 | |||||||
| 02 | 09:43 | W 15 | 16.09 | Fair | CLR | 11 | -5 | 32% | 76.45 | 0.0 | |||||||
| 02 | 09:21 | W 15 | 16.09 | Fair | CLR | 10 | -4 | 37% | 8 | 76.45 | 0.0 | ||||||
| 02 | 09:03 | W 20 | 16.09 | Fair | CLR | 9 | -4 | 40% | 6 | 76.45 | 0.0 | ||||||
| 02 | 08:44 | SW 17 | 16.09 | Fair | CLR | 9 | -4 | 40% | 7 | 76.45 | 0.0 | ||||||
| 02 | 08:25 | W 15 | 16.09 | Fair | CLR | 8 | -4 | 43% | 6 | 76.45 | 0.0 | ||||||
| 02 | 08:07 | W 11 | 16.09 | Fair | CLR | 6 | -4 | 49% | 4 | 76.45 | 0.0 | ||||||
| 02 | 07:47 | SW 15 | 16.09 | Fair | CLR | 6 | -5 | 46% | 3 | 76.45 | 0.0 | ||||||
| 02 | 07:27 | W 13 | 16.09 | Fair | CLR | 5 | -5 | 49% | 2 | 76.48 | 0.0 | ||||||
| 02 | 07:12 | W 9 | 16.09 | Fair | CLR | 4 | -6 | 48% | 2 | 76.45 | 0.0 | ||||||
| 02 | 06:44 | W 9 | 16.09 | Fair | CLR | 4 | -6 | 48% | 2 | 76.45 | 0.0 | ||||||
| 02 | 06:25 | W 7 | 16.09 | Fair | CLR | 3 | -6 | 52% | 1 | 76.45 | 0.0 | ||||||
| 02 | 06:07 | W 7 | 16.09 | Fair | CLR | 3 | -6 | 52% | 1 | 76.45 | 0.0 | ||||||
| 02 | 05:47 | W 6 | 16.09 | Fair | CLR | 3 | -5 | 56% | 76.45 | 0.0 | |||||||
| 02 | 05:30 | Calm | 16.09 | Fair | CLR | 3 | -5 | 56% | 76.45 | 0.0 | |||||||
| 02 | 04:41 | Calm | 16.09 | Fair | CLR | 3 | -5 | 56% | 76.45 | 0.0 | |||||||
| 02 | 04:26 | W 6 | 16.09 | Fair | CLR | 3 | -5 | 56% | 76.45 | 0.0 | |||||||
| 02 | 03:41 | Calm | 16.09 | Fair | CLR | 4 | -5 | 52% | 76.43 | 0.0 | |||||||
| 02 | 03:21 | W 7 | 16.09 | Fair | CLR | 4 | -6 | 48% | 2 | 76.43 | 0.0 | ||||||
| 02 | 03:05 | W 6 | 16.09 | Partly Cloudy | SCT080 | 4 | -5 | 52% | 76.43 | 0.0 | |||||||
| 02 | 02:31 | SW 6 | 16.09 | Mostly Cloudy | BKN080 | 5 | -5 | 49% | 76.45 | 0.0 | |||||||
| 02 | 02:04 | Calm | 16.09 | Fair | CLR | 5 | -5 | 49% | 76.45 | 0.0 | |||||||
| 02 | 01:42 | Calm | 16.09 | Fair | CLR | 5 | -5 | 49% | 76.48 | 0.0 | |||||||
| 02 | 01:22 | Calm | 16.09 | Fair | CLR | 5 | -5 | 49% | 76.48 | 0.0 | |||||||
| 02 | 01:03 | Calm | 16.09 | Fair | CLR | 5 | -5 | 49% | 76.48 | 0.0 | |||||||
| 02 | 00:43 | Calm | 16.09 | Fair | CLR | 6 | -5 | 46% | 76.48 | 0.0 | |||||||
| 02 | 00:25 | Calm | 16.09 | Fair | CLR | 6 | -4 | 49% | 76.45 | 0.0 | |||||||
| 02 | 00:05 | Calm | 16.09 | Fair | CLR | 6 | -7 | 39% | 76.45 | 0.0 | |||||||
| 01 | 23:49 | Calm | 16.09 | Fair | CLR | 6 | -6 | 42% | 76.45 | 0.0 | |||||||
| 01 | 23:16 | Calm | 16.09 | Fair | CLR | 7 | -6 | 39% | 76.45 | 0.0 | |||||||
| Date | Time (cdt) | Wind (kph) | Vis. (km) | Weather | Sky Cond. | Air | Dwpt | Max. | Min. | Relative Humidity | Wind Chill (°C) | Heat Index (°C) | altimeter (cm) | sea level (mb) | 1 hr | 3 hr | 6 hr |
| 6 hour | |||||||||||||||||
| Temperature (ºC) | Pressure | Precipitation (cm) | |||||||||||||||